sensor_id;sensor_type;location;lat;lon;timestamp;P1;durP1;ratioP1;P2;durP2;ratioP2
8225;SDS011;4154;48.810;9.012;2023-02-12T00:00:03;19.27;;;15.60;;
8225;SDS011;4154;48.810;9.012;2023-02-12T00:02:33;19.27;;;16.43;;
8225;SDS011;4154;48.810;9.012;2023-02-12T00:04:59;23.67;;;18.07;;
8225;SDS011;4154;48.810;9.012;2023-02-12T00:07:24;23.77;;;19.30;;
8225;SDS011;4154;48.810;9.012;2023-02-12T00:09:54;24.43;;;18.07;;
8225;SDS011;4154;48.810;9.012;2023-02-12T00:12:19;20.10;;;16.30;;
8225;SDS011;4154;48.810;9.012;2023-02-12T00:14:45;19.20;;;16.20;;
8225;SDS011;4154;48.810;9.012;2023-02-12T00:17:11;19.17;;;16.13;;
8225;SDS011;4154;48.810;9.012;2023-02-12T00:19:36;17.50;;;15.60;;
8225;SDS011;4154;48.810;9.012;2023-02-12T00:22:02;19.20;;;15.83;;
8225;SDS011;4154;48.810;9.012;2023-02-12T00:24:27;19.97;;;16.30;;
8225;SDS011;4154;48.810;9.012;2023-02-12T00:26:53;20.23;;;16.57;;
8225;SDS011;4154;48.810;9.012;2023-02-12T00:29:19;19.40;;;16.60;;
8225;SDS011;4154;48.810;9.012;2023-02-12T00:31:45;20.50;;;16.97;;
8225;SDS011;4154;48.810;9.012;2023-02-12T00:34:10;19.40;;;16.30;;
8225;SDS011;4154;48.810;9.012;2023-02-12T00:36:36;20.70;;;17.77;;
8225;SDS011;4154;48.810;9.012;2023-02-12T00:39:02;21.73;;;17.07;;
8225;SDS011;4154;48.810;9.012;2023-02-12T00:41:28;21.27;;;17.37;;
8225;SDS011;4154;48.810;9.012;2023-02-12T00:43:54;19.60;;;17.00;;
8225;SDS011;4154;48.810;9.012;2023-02-12T00:46:20;20.13;;;18.00;;
8225;SDS011;4154;48.810;9.012;2023-02-12T00:48:46;21.93;;;17.90;;
8225;SDS011;4154;48.810;9.012;2023-02-12T00:51:12;19.67;;;17.57;;
8225;SDS011;4154;48.810;9.012;2023-02-12T00:53:38;21.00;;;16.47;;
8225;SDS011;4154;48.810;9.012;2023-02-12T00:56:04;19.43;;;17.13;;
8225;SDS011;4154;48.810;9.012;2023-02-12T00:58:30;17.90;;;16.00;;
8225;SDS011;4154;48.810;9.012;2023-02-12T01:00:56;19.87;;;16.80;;
8225;SDS011;4154;48.810;9.012;2023-02-12T01:03:22;19.37;;;16.17;;
8225;SDS011;4154;48.810;9.012;2023-02-12T01:05:48;18.03;;;15.77;;
8225;SDS011;4154;48.810;9.012;2023-02-12T01:08:14;20.57;;;16.70;;
8225;SDS011;4154;48.810;9.012;2023-02-12T01:10:41;19.30;;;15.93;;
8225;SDS011;4154;48.810;9.012;2023-02-12T01:13:09;18.30;;;15.47;;
8225;SDS011;4154;48.810;9.012;2023-02-12T01:15:38;18.43;;;14.90;;
8225;SDS011;4154;48.810;9.012;2023-02-12T01:18:04;17.30;;;14.43;;
8225;SDS011;4154;48.810;9.012;2023-02-12T01:20:30;17.07;;;15.23;;
8225;SDS011;4154;48.810;9.012;2023-02-12T01:22:56;16.10;;;14.13;;
8225;SDS011;4154;48.810;9.012;2023-02-12T01:25:21;18.63;;;15.77;;
8225;SDS011;4154;48.810;9.012;2023-02-12T01:27:47;20.17;;;15.97;;
8225;SDS011;4154;48.810;9.012;2023-02-12T01:30:13;18.67;;;16.57;;
8225;SDS011;4154;48.810;9.012;2023-02-12T01:32:39;19.20;;;15.73;;
8225;SDS011;4154;48.810;9.012;2023-02-12T01:35:06;19.27;;;17.17;;
8225;SDS011;4154;48.810;9.012;2023-02-12T01:37:35;19.17;;;16.50;;
8225;SDS011;4154;48.810;9.012;2023-02-12T01:40:02;17.30;;;15.40;;
8225;SDS011;4154;48.810;9.012;2023-02-12T01:42:28;17.60;;;15.40;;
8225;SDS011;4154;48.810;9.012;2023-02-12T01:47:42;19.80;;;16.07;;
8225;SDS011;4154;48.810;9.012;2023-02-12T01:50:16;17.67;;;15.70;;
8225;SDS011;4154;48.810;9.012;2023-02-12T01:52:47;18.60;;;15.70;;
8225;SDS011;4154;48.810;9.012;2023-02-12T01:55:18;17.53;;;15.50;;
8225;SDS011;4154;48.810;9.012;2023-02-12T01:57:44;17.17;;;15.13;;
8225;SDS011;4154;48.810;9.012;2023-02-12T02:00:13;17.93;;;15.67;;
8225;SDS011;4154;48.810;9.012;2023-02-12T02:02:48;16.97;;;15.07;;
8225;SDS011;4154;48.810;9.012;2023-02-12T02:05:24;18.53;;;15.13;;
8225;SDS011;4154;48.810;9.012;2023-02-12T02:08:27;17.17;;;15.37;;
8225;SDS011;4154;48.810;9.012;2023-02-12T02:10:53;18.80;;;15.47;;
8225;SDS011;4154;48.810;9.012;2023-02-12T02:13:18;17.70;;;15.27;;
8225;SDS011;4154;48.810;9.012;2023-02-12T02:16:15;16.73;;;14.93;;
8225;SDS011;4154;48.810;9.012;2023-02-12T02:21:47;16.20;;;14.50;;
8225;SDS011;4154;48.810;9.012;2023-02-12T02:27:15;17.70;;;14.80;;
8225;SDS011;4154;48.810;9.012;2023-02-12T02:35:25;17.90;;;14.83;;
8225;SDS011;4154;48.810;9.012;2023-02-12T02:40:56;19.17;;;14.90;;
8225;SDS011;4154;48.810;9.012;2023-02-12T02:44:13;16.93;;;14.03;;
8225;SDS011;4154;48.810;9.012;2023-02-12T02:46:52;17.67;;;14.03;;
8225;SDS011;4154;48.810;9.012;2023-02-12T02:49:22;15.77;;;13.90;;
8225;SDS011;4154;48.810;9.012;2023-02-12T02:52:00;17.27;;;14.43;;
8225;SDS011;4154;48.810;9.012;2023-02-12T02:54:35;16.57;;;14.53;;
8225;SDS011;4154;48.810;9.012;2023-02-12T02:57:09;16.83;;;14.40;;
8225;SDS011;4154;48.810;9.012;2023-02-12T02:59:41;17.47;;;14.93;;
8225;SDS011;4154;48.810;9.012;2023-02-12T03:02:19;17.30;;;14.57;;
8225;SDS011;4154;48.810;9.012;2023-02-12T03:04:51;17.60;;;14.53;;
8225;SDS011;4154;48.810;9.012;2023-02-12T03:07:28;15.70;;;13.43;;
8225;SDS011;4154;48.810;9.012;2023-02-12T03:12:44;16.80;;;13.97;;
8225;SDS011;4154;48.810;9.012;2023-02-12T03:17:48;16.53;;;14.30;;
8225;SDS011;4154;48.810;9.012;2023-02-12T03:22:54;19.07;;;16.33;;
8225;SDS011;4154;48.810;9.012;2023-02-12T03:25:30;20.20;;;17.40;;
8225;SDS011;4154;48.810;9.012;2023-02-12T03:28:21;20.97;;;17.87;;
8225;SDS011;4154;48.810;9.012;2023-02-12T03:33:29;20.97;;;18.43;;
8225;SDS011;4154;48.810;9.012;2023-02-12T03:39:19;22.43;;;18.77;;
8225;SDS011;4154;48.810;9.012;2023-02-12T03:42:25;21.97;;;18.63;;
8225;SDS011;4154;48.810;9.012;2023-02-12T03:48:09;20.60;;;18.27;;
8225;SDS011;4154;48.810;9.012;2023-02-12T03:53:34;20.77;;;17.67;;
8225;SDS011;4154;48.810;9.012;2023-02-12T03:56:11;19.63;;;17.53;;
8225;SDS011;4154;48.810;9.012;2023-02-12T03:58:44;20.17;;;17.70;;
8225;SDS011;4154;48.810;9.012;2023-02-12T04:01:11;19.63;;;17.53;;
8225;SDS011;4154;48.810;9.012;2023-02-12T04:03:37;21.90;;;17.73;;
8225;SDS011;4154;48.810;9.012;2023-02-12T04:06:04;21.23;;;18.17;;
8225;SDS011;4154;48.810;9.012;2023-02-12T04:08:43;21.43;;;17.37;;
8225;SDS011;4154;48.810;9.012;2023-02-12T04:14:11;18.60;;;16.60;;
8225;SDS011;4154;48.810;9.012;2023-02-12T04:20:38;18.33;;;16.40;;
8225;SDS011;4154;48.810;9.012;2023-02-12T04:23:32;19.83;;;16.90;;
8225;SDS011;4154;48.810;9.012;2023-02-12T04:32:30;19.33;;;16.23;;
8225;SDS011;4154;48.810;9.012;2023-02-12T04:35:18;18.07;;;16.17;;
8225;SDS011;4154;48.810;9.012;2023-02-12T04:38:08;17.97;;;16.07;;
8225;SDS011;4154;48.810;9.012;2023-02-12T04:40:41;18.43;;;16.33;;
8225;SDS011;4154;48.810;9.012;2023-02-12T04:43:08;19.57;;;15.87;;
8225;SDS011;4154;48.810;9.012;2023-02-12T04:45:35;16.73;;;14.73;;
8225;SDS011;4154;48.810;9.012;2023-02-12T04:48:02;16.73;;;14.93;;
8225;SDS011;4154;48.810;9.012;2023-02-12T04:50:36;17.37;;;15.37;;
8225;SDS011;4154;48.810;9.012;2023-02-12T04:53:06;16.90;;;15.13;;
8225;SDS011;4154;48.810;9.012;2023-02-12T04:55:33;16.70;;;14.90;;
8225;SDS011;4154;48.810;9.012;2023-02-12T04:57:59;18.10;;;15.27;;
8225;SDS011;4154;48.810;9.012;2023-02-12T05:00:25;17.43;;;15.63;;
8225;SDS011;4154;48.810;9.012;2023-02-12T05:02:50;18.47;;;15.90;;
8225;SDS011;4154;48.810;9.012;2023-02-12T05:05:16;19.23;;;15.53;;
8225;SDS011;4154;48.810;9.012;2023-02-12T05:07:42;17.93;;;15.70;;
8225;SDS011;4154;48.810;9.012;2023-02-12T05:10:08;18.20;;;15.37;;
8225;SDS011;4154;48.810;9.012;2023-02-12T05:12:34;18.67;;;16.33;;
8225;SDS011;4154;48.810;9.012;2023-02-12T05:14:59;18.10;;;16.20;;
8225;SDS011;4154;48.810;9.012;2023-02-12T05:17:25;16.80;;;15.00;;
8225;SDS011;4154;48.810;9.012;2023-02-12T05:19:51;17.33;;;15.43;;
8225;SDS011;4154;48.810;9.012;2023-02-12T05:22:17;20.33;;;16.23;;
8225;SDS011;4154;48.810;9.012;2023-02-12T05:24:43;17.77;;;15.80;;
8225;SDS011;4154;48.810;9.012;2023-02-12T05:27:09;18.70;;;16.70;;
8225;SDS011;4154;48.810;9.012;2023-02-12T05:29:35;17.93;;;16.03;;
8225;SDS011;4154;48.810;9.012;2023-02-12T05:32:01;18.47;;;16.10;;
8225;SDS011;4154;48.810;9.012;2023-02-12T05:34:26;17.87;;;15.90;;
8225;SDS011;4154;48.810;9.012;2023-02-12T05:36:52;17.27;;;15.47;;
8225;SDS011;4154;48.810;9.012;2023-02-12T05:39:18;19.57;;;16.33;;
8225;SDS011;4154;48.810;9.012;2023-02-12T05:41:43;17.73;;;15.70;;
8225;SDS011;4154;48.810;9.012;2023-02-12T05:44:09;19.20;;;17.10;;
8225;SDS011;4154;48.810;9.012;2023-02-12T05:46:36;20.43;;;17.40;;
8225;SDS011;4154;48.810;9.012;2023-02-12T05:49:02;20.23;;;16.80;;
8225;SDS011;4154;48.810;9.012;2023-02-12T05:51:28;20.77;;;17.53;;
8225;SDS011;4154;48.810;9.012;2023-02-12T05:53:56;19.73;;;17.00;;
8225;SDS011;4154;48.810;9.012;2023-02-12T05:56:26;20.50;;;17.50;;
8225;SDS011;4154;48.810;9.012;2023-02-12T05:59:17;19.53;;;17.43;;
8225;SDS011;4154;48.810;9.012;2023-02-12T06:01:46;19.00;;;16.67;;
8225;SDS011;4154;48.810;9.012;2023-02-12T06:04:16;20.03;;;17.13;;
8225;SDS011;4154;48.810;9.012;2023-02-12T06:06:47;18.50;;;16.60;;
8225;SDS011;4154;48.810;9.012;2023-02-12T06:09:14;18.93;;;16.80;;
8225;SDS011;4154;48.810;9.012;2023-02-12T06:11:40;18.13;;;16.23;;
8225;SDS011;4154;48.810;9.012;2023-02-12T06:14:06;18.90;;;16.67;;
8225;SDS011;4154;48.810;9.012;2023-02-12T06:16:37;19.33;;;16.37;;
8225;SDS011;4154;48.810;9.012;2023-02-12T06:19:03;19.33;;;16.77;;
8225;SDS011;4154;48.810;9.012;2023-02-12T06:21:30;20.50;;;16.73;;
8225;SDS011;4154;48.810;9.012;2023-02-12T06:23:57;21.30;;;16.80;;
8225;SDS011;4154;48.810;9.012;2023-02-12T06:26:23;21.23;;;16.73;;
8225;SDS011;4154;48.810;9.012;2023-02-12T06:28:50;21.40;;;17.33;;
8225;SDS011;4154;48.810;9.012;2023-02-12T06:31:17;19.33;;;16.37;;
8225;SDS011;4154;48.810;9.012;2023-02-12T06:33:49;19.37;;;16.87;;
8225;SDS011;4154;48.810;9.012;2023-02-12T06:36:17;18.53;;;16.50;;
8225;SDS011;4154;48.810;9.012;2023-02-12T06:38:43;18.53;;;16.70;;
8225;SDS011;4154;48.810;9.012;2023-02-12T06:41:09;18.87;;;16.43;;
8225;SDS011;4154;48.810;9.012;2023-02-12T06:43:35;20.70;;;16.53;;
8225;SDS011;4154;48.810;9.012;2023-02-12T06:46:02;18.70;;;16.40;;
8225;SDS011;4154;48.810;9.012;2023-02-12T06:48:29;19.07;;;16.40;;
8225;SDS011;4154;48.810;9.012;2023-02-12T06:51:02;19.10;;;17.07;;
8225;SDS011;4154;48.810;9.012;2023-02-12T06:53:31;21.57;;;18.07;;
8225;SDS011;4154;48.810;9.012;2023-02-12T06:55:59;21.30;;;18.00;;
8225;SDS011;4154;48.810;9.012;2023-02-12T06:58:26;21.43;;;18.23;;
8225;SDS011;4154;48.810;9.012;2023-02-12T07:00:52;22.73;;;19.40;;
8225;SDS011;4154;48.810;9.012;2023-02-12T07:03:17;20.93;;;18.73;;
8225;SDS011;4154;48.810;9.012;2023-02-12T07:05:43;22.30;;;19.83;;
8225;SDS011;4154;48.810;9.012;2023-02-12T07:08:10;24.37;;;20.17;;
8225;SDS011;4154;48.810;9.012;2023-02-12T07:10:35;23.17;;;20.30;;
8225;SDS011;4154;48.810;9.012;2023-02-12T07:13:01;22.60;;;20.17;;
8225;SDS011;4154;48.810;9.012;2023-02-12T07:15:29;22.60;;;19.37;;
8225;SDS011;4154;48.810;9.012;2023-02-12T07:17:55;21.93;;;19.43;;
8225;SDS011;4154;48.810;9.012;2023-02-12T07:20:20;21.40;;;19.13;;
8225;SDS011;4154;48.810;9.012;2023-02-12T07:22:47;23.73;;;19.97;;
8225;SDS011;4154;48.810;9.012;2023-02-12T07:25:12;25.00;;;20.97;;
8225;SDS011;4154;48.810;9.012;2023-02-12T07:27:38;24.83;;;20.47;;
8225;SDS011;4154;48.810;9.012;2023-02-12T07:30:04;24.80;;;20.83;;
8225;SDS011;4154;48.810;9.012;2023-02-12T07:32:32;26.07;;;20.63;;
8225;SDS011;4154;48.810;9.012;2023-02-12T07:34:58;23.93;;;20.43;;
8225;SDS011;4154;48.810;9.012;2023-02-12T07:37:24;24.23;;;20.57;;
8225;SDS011;4154;48.810;9.012;2023-02-12T07:39:50;23.67;;;20.03;;
8225;SDS011;4154;48.810;9.012;2023-02-12T07:42:16;23.87;;;20.53;;
8225;SDS011;4154;48.810;9.012;2023-02-12T07:44:42;22.17;;;19.53;;
8225;SDS011;4154;48.810;9.012;2023-02-12T07:47:09;23.63;;;20.27;;
8225;SDS011;4154;48.810;9.012;2023-02-12T07:49:34;23.90;;;21.10;;
8225;SDS011;4154;48.810;9.012;2023-02-12T07:52:00;24.30;;;21.33;;
8225;SDS011;4154;48.810;9.012;2023-02-12T07:54:26;24.83;;;20.37;;
8225;SDS011;4154;48.810;9.012;2023-02-12T07:56:52;21.93;;;19.20;;
8225;SDS011;4154;48.810;9.012;2023-02-12T07:59:18;20.30;;;17.97;;
8225;SDS011;4154;48.810;9.012;2023-02-12T08:01:45;20.40;;;18.20;;
8225;SDS011;4154;48.810;9.012;2023-02-12T08:04:14;20.30;;;18.17;;
8225;SDS011;4154;48.810;9.012;2023-02-12T08:06:45;20.67;;;18.47;;
8225;SDS011;4154;48.810;9.012;2023-02-12T08:09:15;21.60;;;19.30;;
8225;SDS011;4154;48.810;9.012;2023-02-12T08:11:48;22.20;;;18.70;;
8225;SDS011;4154;48.810;9.012;2023-02-12T08:14:15;22.77;;;19.47;;
8225;SDS011;4154;48.810;9.012;2023-02-12T08:16:44;23.63;;;19.13;;
8225;SDS011;4154;48.810;9.012;2023-02-12T08:19:11;21.40;;;19.10;;
8225;SDS011;4154;48.810;9.012;2023-02-12T08:21:37;22.27;;;19.20;;
8225;SDS011;4154;48.810;9.012;2023-02-12T08:24:03;21.20;;;18.90;;
8225;SDS011;4154;48.810;9.012;2023-02-12T08:26:33;22.70;;;18.97;;
8225;SDS011;4154;48.810;9.012;2023-02-12T08:31:41;21.47;;;18.93;;
8225;SDS011;4154;48.810;9.012;2023-02-12T08:34:14;23.73;;;20.13;;
8225;SDS011;4154;48.810;9.012;2023-02-12T08:36:52;22.23;;;19.40;;
8225;SDS011;4154;48.810;9.012;2023-02-12T08:39:20;23.07;;;20.17;;
8225;SDS011;4154;48.810;9.012;2023-02-12T08:41:48;25.33;;;20.50;;
8225;SDS011;4154;48.810;9.012;2023-02-12T08:44:14;23.70;;;20.87;;
8225;SDS011;4154;48.810;9.012;2023-02-12T08:46:44;24.93;;;21.23;;
8225;SDS011;4154;48.810;9.012;2023-02-12T08:49:15;24.17;;;21.57;;
8225;SDS011;4154;48.810;9.012;2023-02-12T08:51:48;26.43;;;22.00;;
8225;SDS011;4154;48.810;9.012;2023-02-12T08:54:17;24.03;;;21.43;;
8225;SDS011;4154;48.810;9.012;2023-02-12T08:56:46;26.40;;;22.87;;
8225;SDS011;4154;48.810;9.012;2023-02-12T08:59:12;24.87;;;21.20;;
8225;SDS011;4154;48.810;9.012;2023-02-12T09:01:41;24.03;;;21.30;;
8225;SDS011;4154;48.810;9.012;2023-02-12T09:04:12;25.87;;;21.37;;
8225;SDS011;4154;48.810;9.012;2023-02-12T09:06:45;24.63;;;21.40;;
8225;SDS011;4154;48.810;9.012;2023-02-12T09:09:11;25.00;;;21.37;;
8225;SDS011;4154;48.810;9.012;2023-02-12T09:11:38;25.17;;;21.83;;
8225;SDS011;4154;48.810;9.012;2023-02-12T09:14:07;26.80;;;22.53;;
8225;SDS011;4154;48.810;9.012;2023-02-12T09:16:36;25.07;;;22.43;;
8225;SDS011;4154;48.810;9.012;2023-02-12T09:19:04;24.27;;;21.67;;
8225;SDS011;4154;48.810;9.012;2023-02-12T09:21:30;23.83;;;21.20;;
8225;SDS011;4154;48.810;9.012;2023-02-12T09:23:56;24.73;;;22.03;;
8225;SDS011;4154;48.810;9.012;2023-02-12T09:26:22;26.97;;;23.27;;
8225;SDS011;4154;48.810;9.012;2023-02-12T09:28:52;27.93;;;24.27;;
8225;SDS011;4154;48.810;9.012;2023-02-12T09:31:23;28.97;;;25.37;;
8225;SDS011;4154;48.810;9.012;2023-02-12T09:33:56;27.87;;;24.17;;
8225;SDS011;4154;48.810;9.012;2023-02-12T09:36:26;27.20;;;24.30;;
8225;SDS011;4154;48.810;9.012;2023-02-12T09:38:53;28.63;;;25.20;;
8225;SDS011;4154;48.810;9.012;2023-02-12T09:49:23;27.30;;;24.30;;
8225;SDS011;4154;48.810;9.012;2023-02-12T09:52:25;27.17;;;23.73;;
8225;SDS011;4154;48.810;9.012;2023-02-12T09:54:53;27.57;;;24.40;;
8225;SDS011;4154;48.810;9.012;2023-02-12T09:57:23;27.23;;;24.00;;
8225;SDS011;4154;48.810;9.012;2023-02-12T10:00:01;26.37;;;23.40;;
8225;SDS011;4154;48.810;9.012;2023-02-12T10:02:39;26.67;;;22.70;;
8225;SDS011;4154;48.810;9.012;2023-02-12T10:05:16;25.37;;;20.97;;
8225;SDS011;4154;48.810;9.012;2023-02-12T10:08:33;23.37;;;19.63;;
8225;SDS011;4154;48.810;9.012;2023-02-12T10:13:21;17.97;;;15.17;;
8225;SDS011;4154;48.810;9.012;2023-02-12T10:16:06;16.80;;;14.30;;
8225;SDS011;4154;48.810;9.012;2023-02-12T10:18:40;18.00;;;15.27;;
8225;SDS011;4154;48.810;9.012;2023-02-12T10:24:46;15.73;;;14.03;;
8225;SDS011;4154;48.810;9.012;2023-02-12T10:27:34;16.53;;;14.57;;
8225;SDS011;4154;48.810;9.012;2023-02-12T10:30:16;13.87;;;12.23;;
8225;SDS011;4154;48.810;9.012;2023-02-12T10:32:58;13.03;;;10.83;;
8225;SDS011;4154;48.810;9.012;2023-02-12T10:35:30;9.13;;;8.23;;
8225;SDS011;4154;48.810;9.012;2023-02-12T10:38:15;9.50;;;8.50;;
8225;SDS011;4154;48.810;9.012;2023-02-12T10:40:47;9.30;;;8.40;;
8225;SDS011;4154;48.810;9.012;2023-02-12T10:43:14;11.13;;;10.03;;
8225;SDS011;4154;48.810;9.012;2023-02-12T10:45:41;10.70;;;9.57;;
8225;SDS011;4154;48.810;9.012;2023-02-12T10:48:24;10.70;;;9.67;;
8225;SDS011;4154;48.810;9.012;2023-02-12T10:53:35;10.70;;;9.60;;
8225;SDS011;4154;48.810;9.012;2023-02-12T11:01:28;10.57;;;9.47;;
8225;SDS011;4154;48.810;9.012;2023-02-12T11:03:58;12.30;;;10.20;;
8225;SDS011;4154;48.810;9.012;2023-02-12T11:07:06;12.00;;;10.10;;
8225;SDS011;4154;48.810;9.012;2023-02-12T11:09:39;11.77;;;10.47;;
8225;SDS011;4154;48.810;9.012;2023-02-12T11:15:00;12.00;;;10.80;;
8225;SDS011;4154;48.810;9.012;2023-02-12T11:17:43;12.33;;;10.50;;
8225;SDS011;4154;48.810;9.012;2023-02-12T11:20:24;11.53;;;10.33;;
8225;SDS011;4154;48.810;9.012;2023-02-12T11:28:52;12.67;;;11.37;;
8225;SDS011;4154;48.810;9.012;2023-02-12T11:31:27;12.80;;;11.50;;
8225;SDS011;4154;48.810;9.012;2023-02-12T11:36:39;14.23;;;12.37;;
8225;SDS011;4154;48.810;9.012;2023-02-12T11:39:27;13.97;;;12.47;;
8225;SDS011;4154;48.810;9.012;2023-02-12T11:42:15;13.80;;;12.40;;
8225;SDS011;4154;48.810;9.012;2023-02-12T11:44:56;13.97;;;12.23;;
8225;SDS011;4154;48.810;9.012;2023-02-12T11:47:24;13.87;;;12.47;;
8225;SDS011;4154;48.810;9.012;2023-02-12T11:49:57;15.37;;;12.17;;
8225;SDS011;4154;48.810;9.012;2023-02-12T11:52:51;13.37;;;11.73;;
8225;SDS011;4154;48.810;9.012;2023-02-12T11:55:23;13.17;;;10.83;;
8225;SDS011;4154;48.810;9.012;2023-02-12T11:58:03;12.23;;;10.27;;
8225;SDS011;4154;48.810;9.012;2023-02-12T12:00:37;12.10;;;9.17;;
8225;SDS011;4154;48.810;9.012;2023-02-12T12:05:52;8.83;;;7.67;;
8225;SDS011;4154;48.810;9.012;2023-02-12T12:08:28;7.87;;;7.07;;
8225;SDS011;4154;48.810;9.012;2023-02-12T12:11:13;7.73;;;6.90;;
8225;SDS011;4154;48.810;9.012;2023-02-12T12:13:58;7.77;;;6.97;;
8225;SDS011;4154;48.810;9.012;2023-02-12T12:16:38;7.43;;;6.73;;
8225;SDS011;4154;48.810;9.012;2023-02-12T12:20:03;6.87;;;6.17;;
8225;SDS011;4154;48.810;9.012;2023-02-12T12:27:58;7.90;;;7.10;;
8225;SDS011;4154;48.810;9.012;2023-02-12T12:41:22;7.13;;;6.40;;
8225;SDS011;4154;48.810;9.012;2023-02-12T12:44:23;6.40;;;5.80;;
8225;SDS011;4154;48.810;9.012;2023-02-12T12:47:15;6.80;;;5.90;;
8225;SDS011;4154;48.810;9.012;2023-02-12T12:52:45;6.60;;;5.90;;
8225;SDS011;4154;48.810;9.012;2023-02-12T12:55:37;6.90;;;5.73;;
8225;SDS011;4154;48.810;9.012;2023-02-12T13:10:31;7.00;;;6.30;;
8225;SDS011;4154;48.810;9.012;2023-02-12T13:19:02;7.27;;;5.90;;
8225;SDS011;4154;48.810;9.012;2023-02-12T13:24:40;6.73;;;5.73;;
8225;SDS011;4154;48.810;9.012;2023-02-12T13:27:12;6.10;;;5.50;;
8225;SDS011;4154;48.810;9.012;2023-02-12T13:29:43;6.50;;;5.83;;
8225;SDS011;4154;48.810;9.012;2023-02-12T13:32:23;6.37;;;5.77;;
8225;SDS011;4154;48.810;9.012;2023-02-12T13:34:57;6.43;;;5.77;;
8225;SDS011;4154;48.810;9.012;2023-02-12T13:40:13;6.10;;;5.50;;
8225;SDS011;4154;48.810;9.012;2023-02-12T13:54:16;5.43;;;4.93;;
8225;SDS011;4154;48.810;9.012;2023-02-12T13:57:14;5.63;;;5.03;;
8225;SDS011;4154;48.810;9.012;2023-02-12T13:59:44;5.67;;;5.13;;
8225;SDS011;4154;48.810;9.012;2023-02-12T14:05:01;5.40;;;4.90;;
8225;SDS011;4154;48.810;9.012;2023-02-12T14:07:41;5.33;;;4.83;;
8225;SDS011;4154;48.810;9.012;2023-02-12T14:10:21;5.20;;;4.70;;
8225;SDS011;4154;48.810;9.012;2023-02-12T14:13:32;4.77;;;4.30;;
8225;SDS011;4154;48.810;9.012;2023-02-12T14:16:20;5.73;;;4.50;;
8225;SDS011;4154;48.810;9.012;2023-02-12T14:22:10;6.60;;;5.00;;
8225;SDS011;4154;48.810;9.012;2023-02-12T14:24:49;5.40;;;4.90;;
8225;SDS011;4154;48.810;9.012;2023-02-12T14:35:31;5.10;;;4.60;;
8225;SDS011;4154;48.810;9.012;2023-02-12T14:38:57;5.63;;;5.03;;
8225;SDS011;4154;48.810;9.012;2023-02-12T14:41:12;5.30;;;4.80;;
8225;SDS011;4154;48.810;9.012;2023-02-12T14:47:01;6.87;;;4.70;;
8225;SDS011;4154;48.810;9.012;2023-02-12T14:49:45;4.90;;;4.40;;
8225;SDS011;4154;48.810;9.012;2023-02-12T14:52:17;5.43;;;4.87;;
8225;SDS011;4154;48.810;9.012;2023-02-12T14:54:55;4.57;;;4.17;;
8225;SDS011;4154;48.810;9.012;2023-02-12T15:02:28;3.90;;;3.60;;
8225;SDS011;4154;48.810;9.012;2023-02-12T15:05:01;4.17;;;3.77;;
8225;SDS011;4154;48.810;9.012;2023-02-12T15:07:45;3.80;;;3.40;;
8225;SDS011;4154;48.810;9.012;2023-02-12T15:10:21;4.23;;;3.83;;
8225;SDS011;4154;48.810;9.012;2023-02-12T15:13:12;4.30;;;3.43;;
8225;SDS011;4154;48.810;9.012;2023-02-12T15:16:07;3.53;;;3.23;;
8225;SDS011;4154;48.810;9.012;2023-02-12T15:18:47;3.20;;;2.90;;
8225;SDS011;4154;48.810;9.012;2023-02-12T15:21:23;3.13;;;2.87;;
8225;SDS011;4154;48.810;9.012;2023-02-12T15:24:04;3.27;;;2.97;;
8225;SDS011;4154;48.810;9.012;2023-02-12T15:26:41;3.40;;;3.10;;
8225;SDS011;4154;48.810;9.012;2023-02-12T15:29:16;3.10;;;2.80;;
8225;SDS011;4154;48.810;9.012;2023-02-12T15:31:56;3.07;;;2.77;;
8225;SDS011;4154;48.810;9.012;2023-02-12T15:34:26;3.13;;;2.80;;
8225;SDS011;4154;48.810;9.012;2023-02-12T15:37:00;3.03;;;2.73;;
8225;SDS011;4154;48.810;9.012;2023-02-12T15:39:27;2.97;;;2.67;;
8225;SDS011;4154;48.810;9.012;2023-02-12T15:47:40;2.70;;;2.50;;
8225;SDS011;4154;48.810;9.012;2023-02-12T15:50:12;4.43;;;3.30;;
8225;SDS011;4154;48.810;9.012;2023-02-12T15:52:40;2.70;;;2.50;;
8225;SDS011;4154;48.810;9.012;2023-02-12T15:55:16;3.60;;;3.00;;
8225;SDS011;4154;48.810;9.012;2023-02-12T15:57:50;3.23;;;2.87;;
8225;SDS011;4154;48.810;9.012;2023-02-12T16:00:41;2.60;;;2.40;;
8225;SDS011;4154;48.810;9.012;2023-02-12T16:03:22;2.50;;;2.30;;
8225;SDS011;4154;48.810;9.012;2023-02-12T16:05:51;3.47;;;2.20;;
8225;SDS011;4154;48.810;9.012;2023-02-12T16:08:25;2.30;;;2.10;;
8225;SDS011;4154;48.810;9.012;2023-02-12T16:10:52;2.60;;;2.40;;
8225;SDS011;4154;48.810;9.012;2023-02-12T16:13:23;2.60;;;2.40;;
8225;SDS011;4154;48.810;9.012;2023-02-12T16:16:11;2.50;;;2.30;;
8225;SDS011;4154;48.810;9.012;2023-02-12T16:18:45;2.50;;;2.30;;
8225;SDS011;4154;48.810;9.012;2023-02-12T16:21:26;3.37;;;2.57;;
8225;SDS011;4154;48.810;9.012;2023-02-12T16:23:52;3.17;;;2.60;;
8225;SDS011;4154;48.810;9.012;2023-02-12T16:26:18;2.67;;;2.30;;
8225;SDS011;4154;48.810;9.012;2023-02-12T16:28:51;2.40;;;2.20;;
8225;SDS011;4154;48.810;9.012;2023-02-12T16:31:20;2.63;;;2.40;;
8225;SDS011;4154;48.810;9.012;2023-02-12T16:33:50;2.50;;;2.30;;
8225;SDS011;4154;48.810;9.012;2023-02-12T16:44:19;3.17;;;2.70;;
8225;SDS011;4154;48.810;9.012;2023-02-12T16:46:51;2.93;;;2.63;;
8225;SDS011;4154;48.810;9.012;2023-02-12T16:49:22;3.60;;;2.70;;
8225;SDS011;4154;48.810;9.012;2023-02-12T16:51:49;3.37;;;2.80;;
8225;SDS011;4154;48.810;9.012;2023-02-12T16:54:27;3.17;;;2.60;;
8225;SDS011;4154;48.810;9.012;2023-02-12T16:56:56;3.43;;;3.07;;
8225;SDS011;4154;48.810;9.012;2023-02-12T16:59:23;3.20;;;2.63;;
8225;SDS011;4154;48.810;9.012;2023-02-12T17:01:56;3.63;;;2.80;;
8225;SDS011;4154;48.810;9.012;2023-02-12T17:04:35;3.07;;;2.77;;
8225;SDS011;4154;48.810;9.012;2023-02-12T17:07:00;3.50;;;2.63;;
8225;SDS011;4154;48.810;9.012;2023-02-12T17:09:26;3.00;;;2.70;;
8225;SDS011;4154;48.810;9.012;2023-02-12T17:11:54;3.40;;;2.60;;
8225;SDS011;4154;48.810;9.012;2023-02-12T17:14:21;2.97;;;2.73;;
8225;SDS011;4154;48.810;9.012;2023-02-12T17:16:47;3.23;;;2.93;;
8225;SDS011;4154;48.810;9.012;2023-02-12T17:19:13;3.20;;;2.87;;
8225;SDS011;4154;48.810;9.012;2023-02-12T17:21:40;3.27;;;2.90;;
8225;SDS011;4154;48.810;9.012;2023-02-12T17:26:54;3.30;;;3.00;;
8225;SDS011;4154;48.810;9.012;2023-02-12T17:29:22;3.80;;;3.13;;
8225;SDS011;4154;48.810;9.012;2023-02-12T17:31:49;3.57;;;3.27;;
8225;SDS011;4154;48.810;9.012;2023-02-12T17:34:20;3.97;;;3.50;;
8225;SDS011;4154;48.810;9.012;2023-02-12T17:36:47;3.80;;;3.43;;
8225;SDS011;4154;48.810;9.012;2023-02-12T17:39:14;4.10;;;3.70;;
8225;SDS011;4154;48.810;9.012;2023-02-12T17:41:41;3.77;;;3.47;;
8225;SDS011;4154;48.810;9.012;2023-02-12T17:44:08;3.20;;;2.93;;
8225;SDS011;4154;48.810;9.012;2023-02-12T17:46:35;3.60;;;3.30;;
8225;SDS011;4154;48.810;9.012;2023-02-12T17:49:02;3.80;;;3.50;;
8225;SDS011;4154;48.810;9.012;2023-02-12T17:51:28;4.60;;;4.20;;
8225;SDS011;4154;48.810;9.012;2023-02-12T17:53:54;4.03;;;3.63;;
8225;SDS011;4154;48.810;9.012;2023-02-12T17:56:21;3.90;;;3.50;;
8225;SDS011;4154;48.810;9.012;2023-02-12T17:58:49;4.60;;;4.20;;
8225;SDS011;4154;48.810;9.012;2023-02-12T18:01:17;4.40;;;4.00;;
8225;SDS011;4154;48.810;9.012;2023-02-12T18:03:45;5.00;;;4.50;;
8225;SDS011;4154;48.810;9.012;2023-02-12T18:06:11;5.43;;;4.57;;
8225;SDS011;4154;48.810;9.012;2023-02-12T18:08:40;5.47;;;4.67;;
8225;SDS011;4154;48.810;9.012;2023-02-12T18:11:07;4.97;;;4.50;;
8225;SDS011;4154;48.810;9.012;2023-02-12T18:13:35;6.17;;;4.90;;
8225;SDS011;4154;48.810;9.012;2023-02-12T18:16:04;6.73;;;5.30;;
8225;SDS011;4154;48.810;9.012;2023-02-12T18:18:32;8.10;;;5.70;;
8225;SDS011;4154;48.810;9.012;2023-02-12T18:20:59;6.73;;;5.13;;
8225;SDS011;4154;48.810;9.012;2023-02-12T18:23:25;7.10;;;5.73;;
8225;SDS011;4154;48.810;9.012;2023-02-12T18:25:51;5.83;;;5.00;;